Messwerte Fitchburg

Temperatur

Temperatur
°C
1574182800 12.00 12.00 4
1574186400 13.00 13.00 6
1574190000 14.00 14.00 6
1574193600 15.00 15.00 6
1574197200 16.00 16.00 6
1574200800 17.00 17.00 6
1574204400 18.00 18.00 5
1574208000 19.00 19.00
1574211600 20.00 20.00 5
1574215200 21.00 21.00 4
1574218800 22.00 22.00 4
1574222400 23.00 23.00 4
1574226000 0.00 0.00
1574229600 1.00 1.00 4
1574233200 2.00 2.00 3
1574236800 3.00 3.00 3
1574240400 4.00 4.00 3
1574244000 5.00 5.00 3
1574247600 6.00 6.00 3
1574251200 7.00 7.00 3
1574254800 8.00 8.00 3
1574258400 9.00 9.00
1574262000 10.00 10.00
1574265600 11.00 11.00

Wir danken unserem Partner:

Aktuellste Messwerte

Wettercharakter
Wetter: bedeckt, wenig Regen
Temperatur
4 °C
Feuchtigkeit
85 %
Wind
5 km/hWindrichtung: Nord
Luftdruck
1013 hPa
Messzeit: 20. November 2019, 12.00Datenquelle: METAR

Weitere Messstationen in der Nähe

Messstation Temperatur Entfernung
Nashua 4 °C 33 km
Worcester 3 °C 34 km
Jaffrey 3 °C 35 km
Bedford 4 °C 40 km
Orange 4 °C 43 km
Manchester 4 °C 50 km
Lawrence 3 °C 56 km

Wind

Windrichtung Böen Mittelwind
° km/h km/h
1574182800 12.00 11.00 - 12.00 0
1574186400 13.00 12.00 - 13.00 0
1574190000 14.00 13.00 - 14.00 0
1574193600 15.00 14.00 - 15.00 0
1574197200 16.00 15.00 - 16.00 0
1574200800 17.00 16.00 - 17.00 0
1574204400 18.00 17.00 - 18.00 340° 5
1574208000 19.00 18.00 - 19.00
1574211600 20.00 19.00 - 20.00 0
1574215200 21.00 20.00 - 21.00 10° 5
1574218800 22.00 21.00 - 22.00 0
1574222400 23.00 22.00 - 23.00 0
1574226000 0.00 23.00 - 0.00
1574229600 1.00 0.00 - 1.00 40° 15
1574233200 2.00 1.00 - 2.00 30° 5
1574236800 3.00 2.00 - 3.00 350° 5
1574240400 4.00 3.00 - 4.00 350° 5
1574244000 5.00 4.00 - 5.00 330° 5
1574247600 6.00 5.00 - 6.00 0
1574251200 7.00 6.00 - 7.00 360° 0
1574254800 8.00 7.00 - 8.00 350° 5
1574258400 9.00 8.00 - 9.00
1574262000 10.00 9.00 - 10.00
1574265600 11.00 10.00 - 11.00

Ihre Wetterstation

Fehlt Ihre Wetterstation auf unserem Portal?

Schreiben Sie an network@meteonews.ch

Klima

Wann ist es am wärmsten? Wann regnet es am wenigsten? Unsere Klimadaten geben Auskunft.